Chattanooga (CHA/KCHA)

Map

Destinations

Information

Location
Chattanooga, TN
Local Time
21:04 / 9:04 pm
GMT Time
01:04 / 1:04 am
Gates
2
No FAA reported delays
METAR KCHA 240053Z 33008KT 10SM BKN250 26/15 A2993 RMK AO2 SLP126 T02560150
TAF KCHA 232320Z 2400/2424 34006KT P6SM SCT250 FM241400 01010KT P6SM FEW060